createdAt,value
2019-03-31T00:02:04.224Z,68.30
2019-03-31T00:04:31.570Z,68.70
2019-03-31T00:07:01.445Z,68.80
2019-03-31T00:09:34.346Z,69.00
2019-03-31T00:12:00.859Z,68.70
2019-03-31T00:14:30.078Z,69.40
2019-03-31T00:16:56.431Z,69.60
2019-03-31T00:19:22.634Z,70.10
2019-03-31T00:21:52.036Z,70.60
2019-03-31T00:24:18.357Z,70.20
2019-03-31T00:26:44.602Z,69.70
2019-03-31T00:29:12.441Z,70.20
2019-03-31T00:31:39.603Z,70.00
2019-03-31T00:34:10.505Z,70.60
2019-03-31T00:36:41.921Z,71.20
2019-03-31T00:39:08.675Z,72.00
2019-03-31T00:41:34.986Z,73.10
2019-03-31T00:44:02.123Z,73.80
2019-03-31T00:46:34.811Z,74.30
2019-03-31T00:49:03.834Z,74.30
2019-03-31T00:51:34.156Z,73.90
2019-03-31T00:54:00.414Z,74.30
2019-03-31T00:56:26.707Z,74.00
2019-03-31T00:58:53.652Z,74.00
2019-03-31T01:01:36.314Z,73.70
2019-03-31T01:03:57.335Z,74.00
2019-03-31T01:06:39.841Z,73.80
2019-03-31T01:09:26.697Z,74.60
2019-03-31T01:11:52.806Z,74.70
2019-03-31T01:14:19.611Z,74.10
2019-03-31T01:16:50.934Z,73.90
2019-03-31T01:19:22.479Z,74.30
2019-03-31T01:21:51.097Z,74.30
2019-03-31T01:24:22.076Z,75.30
2019-03-31T01:26:53.875Z,76.50
2019-03-31T01:29:24.339Z,76.70
2019-03-31T01:31:58.217Z,76.90
2019-03-31T01:34:29.493Z,76.70
2019-03-31T01:36:56.215Z,76.50
2019-03-31T01:39:29.784Z,76.80
2019-03-31T01:41:58.347Z,77.20
2019-03-31T01:44:24.812Z,76.90
2019-03-31T01:47:10.481Z,76.40
2019-03-31T01:49:24.708Z,76.50
2019-03-31T01:51:54.271Z,76.90
2019-03-31T01:54:20.791Z,76.60
2019-03-31T01:56:51.454Z,76.70
2019-03-31T01:59:17.962Z,77.20
2019-03-31T02:01:44.947Z,77.70
2019-03-31T02:04:11.491Z,77.90
2019-03-31T02:06:40.832Z,78.20
2019-03-31T02:09:24.946Z,78.90
2019-03-31T02:11:57.194Z,79.30
2019-03-31T02:14:24.414Z,79.90
2019-03-31T02:16:54.810Z,80.00
2019-03-31T02:19:21.971Z,79.50
2019-03-31T02:21:50.296Z,79.40
2019-03-31T02:24:16.641Z,80.50
2019-03-31T02:26:48.456Z,80.10
2019-03-31T02:29:14.754Z,79.80
2019-03-31T02:31:44.804Z,80.60
2019-03-31T02:34:14.960Z,81.20
2019-03-31T02:36:43.368Z,81.10
2019-03-31T02:39:09.967Z,80.90
2019-03-31T02:41:37.050Z,80.80
2019-03-31T02:44:06.307Z,81.40
2019-03-31T02:46:32.620Z,81.10
2019-03-31T02:49:02.189Z,80.60
2019-03-31T02:51:36.530Z,80.40
2019-03-31T02:54:03.124Z,80.80
2019-03-31T02:56:31.478Z,80.90
2019-03-31T02:59:02.614Z,80.90
2019-03-31T03:01:32.816Z,80.90
2019-03-31T03:04:02.395Z,81.70
2019-03-31T03:06:35.338Z,82.40
2019-03-31T03:09:07.286Z,82.50
2019-03-31T03:11:35.720Z,82.50
2019-03-31T03:14:03.864Z,82.10
2019-03-31T03:16:30.376Z,84.00
2019-03-31T03:18:57.044Z,82.40
2019-03-31T03:21:24.927Z,81.90
2019-03-31T03:23:54.050Z,81.80
2019-03-31T03:26:21.720Z,81.90
2019-03-31T03:28:48.074Z,82.40
2019-03-31T03:31:19.817Z,83.40
2019-03-31T03:33:46.318Z,83.30
2019-03-31T03:36:13.818Z,83.20
2019-03-31T03:38:40.454Z,83.50
2019-03-31T03:41:07.972Z,83.80
2019-03-31T03:43:54.125Z,83.90
2019-03-31T03:46:08.591Z,84.00
2019-03-31T03:48:36.485Z,84.70
2019-03-31T03:51:03.591Z,85.20
2019-03-31T03:53:47.297Z,84.80
2019-03-31T03:56:15.528Z,84.70
2019-03-31T03:58:44.625Z,85.00
2019-03-31T04:01:19.164Z,84.70
2019-03-31T04:03:45.374Z,85.40
2019-03-31T04:06:15.122Z,85.90
2019-03-31T04:08:45.697Z,86.30
2019-03-31T04:11:21.601Z,85.70
2019-03-31T04:13:52.936Z,85.40
2019-03-31T04:16:21.402Z,85.20
2019-03-31T04:18:47.617Z,86.50
2019-03-31T04:21:13.940Z,87.00
2019-03-31T04:23:44.577Z,87.50
2019-03-31T04:26:10.914Z,87.00
2019-03-31T04:28:37.891Z,87.00
2019-03-31T04:31:04.317Z,87.30
2019-03-31T04:33:49.168Z,87.20
2019-03-31T04:36:00.461Z,86.60
2019-03-31T04:38:27.641Z,86.40
2019-03-31T04:41:03.413Z,85.80
2019-03-31T04:43:30.099Z,86.00
2019-03-31T04:46:00.336Z,85.80
2019-03-31T04:48:27.319Z,86.70
2019-03-31T04:50:59.948Z,87.10
2019-03-31T04:53:37.858Z,87.00
2019-03-31T04:56:07.737Z,87.50
2019-03-31T04:58:38.527Z,87.10
2019-03-31T05:01:08.316Z,86.20
2019-03-31T05:03:36.938Z,86.10
2019-03-31T05:06:03.478Z,86.40
2019-03-31T05:08:34.320Z,86.40
2019-03-31T05:11:01.077Z,86.80
2019-03-31T05:13:27.435Z,87.20
2019-03-31T05:15:55.808Z,86.50
2019-03-31T05:18:26.231Z,85.90
2019-03-31T05:20:54.432Z,86.00
2019-03-31T05:23:23.693Z,86.80
2019-03-31T05:25:49.516Z,88.50
2019-03-31T05:28:16.063Z,88.60
2019-03-31T05:30:42.568Z,88.60
2019-03-31T05:33:10.891Z,88.10
2019-03-31T05:35:42.416Z,86.80
2019-03-31T05:38:13.999Z,86.60
2019-03-31T05:40:42.455Z,87.00
2019-03-31T05:43:09.194Z,88.10
2019-03-31T05:45:36.108Z,88.80
2019-03-31T05:48:04.902Z,89.10
2019-03-31T05:50:31.375Z,89.40
2019-03-31T05:53:00.991Z,89.60
2019-03-31T05:55:31.603Z,89.90
2019-03-31T05:57:57.867Z,90.30
2019-03-31T06:00:34.807Z,90.50
2019-03-31T06:03:04.575Z,90.90
2019-03-31T06:05:30.721Z,91.20
2019-03-31T06:07:56.862Z,91.80
2019-03-31T06:10:23.029Z,92.10
2019-03-31T06:12:54.437Z,92.10
2019-03-31T06:15:21.766Z,91.90
2019-03-31T06:17:48.084Z,91.90
2019-03-31T06:20:14.557Z,91.90
2019-03-31T06:22:40.683Z,92.00
2019-03-31T06:25:11.411Z,92.00
2019-03-31T06:30:34.654Z,92.10
2019-03-31T06:33:02.052Z,92.30
2019-03-31T06:35:28.379Z,92.70
2019-03-31T06:37:54.716Z,92.80
2019-03-31T06:40:21.058Z,93.10
2019-03-31T06:42:47.494Z,93.40
2019-03-31T06:45:14.758Z,93.50
2019-03-31T06:47:41.091Z,93.60
2019-03-31T06:50:07.734Z,93.50
2019-03-31T06:52:34.448Z,93.20
2019-03-31T06:55:05.059Z,93.30
2019-03-31T06:57:35.725Z,93.50
2019-03-31T07:00:16.216Z,93.60
2019-03-31T07:02:42.450Z,93.50
2019-03-31T07:05:10.710Z,93.30
2019-03-31T07:07:42.833Z,93.40
2019-03-31T07:10:10.065Z,93.50
2019-03-31T07:12:41.213Z,93.30
2019-03-31T07:15:10.298Z,92.90
2019-03-31T07:17:40.968Z,93.10
2019-03-31T07:20:09.291Z,92.80
2019-03-31T07:22:40.597Z,92.90
2019-03-31T07:25:08.759Z,92.80
2019-03-31T07:27:43.667Z,93.10
2019-03-31T07:30:20.236Z,92.70
2019-03-31T07:32:46.966Z,93.60
2019-03-31T07:35:18.682Z,93.20
2019-03-31T07:37:47.628Z,92.70
2019-03-31T07:40:14.120Z,92.60
2019-03-31T07:42:40.727Z,92.60
2019-03-31T07:45:11.703Z,92.40
2019-03-31T07:47:45.132Z,92.30
2019-03-31T07:50:13.863Z,91.90
2019-03-31T07:52:44.003Z,91.70
2019-03-31T07:55:15.331Z,91.70
2019-03-31T07:57:46.828Z,91.40
2019-03-31T08:00:18.476Z,91.10
2019-03-31T08:02:47.176Z,91.10
2019-03-31T08:05:16.009Z,90.40
2019-03-31T08:07:42.730Z,90.10
2019-03-31T08:10:14.988Z,88.70
2019-03-31T08:12:44.101Z,86.30
2019-03-31T08:15:16.503Z,86.70
2019-03-31T08:17:47.332Z,86.30
2019-03-31T08:20:16.304Z,84.60
2019-03-31T08:22:46.887Z,82.80
2019-03-31T08:25:17.235Z,77.10
2019-03-31T08:27:47.231Z,81.30
2019-03-31T08:30:18.493Z,81.50
2019-03-31T08:32:45.151Z,81.60
2019-03-31T08:35:12.657Z,80.30
2019-03-31T08:37:43.196Z,77.30
2019-03-31T08:40:12.186Z,73.10
2019-03-31T08:42:39.811Z,72.40
2019-03-31T08:45:08.861Z,72.80
2019-03-31T08:47:49.311Z,73.90
2019-03-31T08:50:17.846Z,73.40
2019-03-31T08:52:44.096Z,72.10
2019-03-31T08:55:13.532Z,73.60
2019-03-31T08:57:40.354Z,72.30
2019-03-31T09:00:18.389Z,72.30
2019-03-31T09:02:47.053Z,71.20
2019-03-31T09:05:13.981Z,71.20
2019-03-31T09:07:41.823Z,70.20
2019-03-31T09:10:09.790Z,68.70
2019-03-31T09:12:36.776Z,68.80
2019-03-31T09:15:06.550Z,66.60
2019-03-31T09:17:33.500Z,65.70
2019-03-31T09:19:59.737Z,63.40
2019-03-31T09:22:26.091Z,62.30
2019-03-31T09:24:55.526Z,62.70
2019-03-31T09:27:28.032Z,59.90
2019-03-31T09:29:58.142Z,56.10
2019-03-31T09:32:25.390Z,54.40
2019-03-31T09:34:59.202Z,53.90
2019-03-31T09:37:34.471Z,50.70
2019-03-31T09:39:59.560Z,49.90
2019-03-31T09:42:28.860Z,48.70
2019-03-31T09:45:00.003Z,47.60
2019-03-31T09:47:34.667Z,46.30
2019-03-31T09:50:03.921Z,46.60
2019-03-31T09:52:30.645Z,45.40
2019-03-31T09:55:00.478Z,43.60
2019-03-31T09:57:27.826Z,44.50
2019-03-31T09:59:56.682Z,41.60
2019-03-31T10:02:22.987Z,42.10
2019-03-31T10:04:49.203Z,42.50
2019-03-31T10:07:15.959Z,41.60
2019-03-31T10:09:43.018Z,41.20
2019-03-31T10:12:16.498Z,40.60
2019-03-31T10:14:40.502Z,40.80
2019-03-31T10:17:06.901Z,39.10
2019-03-31T10:19:42.081Z,38.00
2019-03-31T10:22:06.651Z,37.90
2019-03-31T10:24:35.744Z,37.40
2019-03-31T10:27:06.410Z,37.20
2019-03-31T10:29:35.469Z,35.50
2019-03-31T10:32:08.512Z,35.40
2019-03-31T10:34:36.330Z,34.80
2019-03-31T10:37:03.319Z,35.00
2019-03-31T10:39:30.596Z,35.00
2019-03-31T10:41:56.863Z,34.00
2019-03-31T10:44:23.096Z,31.50
2019-03-31T10:46:49.269Z,32.20
2019-03-31T10:49:15.552Z,30.40
2019-03-31T10:51:45.542Z,30.20
2019-03-31T10:54:11.825Z,30.00
2019-03-31T10:56:40.175Z,30.60
2019-03-31T10:59:07.578Z,29.60
2019-03-31T11:01:33.773Z,28.80
2019-03-31T11:04:00.101Z,29.10
2019-03-31T11:06:36.921Z,28.80
2019-03-31T11:09:05.202Z,29.60
2019-03-31T11:11:31.465Z,29.50
2019-03-31T11:13:57.804Z,29.10
2019-03-31T11:16:24.024Z,29.10
2019-03-31T11:18:51.303Z,29.10
2019-03-31T11:21:19.411Z,29.00
2019-03-31T11:23:45.707Z,28.30
2019-03-31T11:26:14.367Z,27.70
2019-03-31T11:28:40.718Z,27.60
2019-03-31T11:31:06.984Z,27.10
2019-03-31T11:33:33.129Z,28.10
2019-03-31T11:35:59.371Z,27.50
2019-03-31T11:38:25.581Z,27.40
2019-03-31T11:40:51.823Z,26.80
2019-03-31T11:43:17.951Z,26.80
2019-03-31T11:45:44.255Z,25.60
2019-03-31T11:48:10.538Z,26.00
2019-03-31T11:50:36.693Z,25.40
2019-03-31T11:53:03.148Z,25.20
2019-03-31T11:55:29.366Z,25.40
2019-03-31T11:57:55.514Z,25.60
2019-03-31T12:00:23.648Z,26.00
2019-03-31T12:02:49.982Z,26.30
2019-03-31T12:05:16.342Z,26.40
2019-03-31T12:07:47.197Z,26.50
2019-03-31T12:10:13.895Z,26.30
2019-03-31T12:12:40.222Z,26.10
2019-03-31T12:15:07.981Z,26.00
2019-03-31T12:17:34.179Z,25.50
2019-03-31T12:20:00.790Z,25.10
2019-03-31T12:22:26.971Z,24.90
2019-03-31T12:24:53.513Z,24.90
2019-03-31T12:27:19.917Z,25.30
2019-03-31T12:29:46.205Z,25.40
2019-03-31T12:32:14.359Z,25.50
2019-03-31T12:34:40.538Z,25.70
2019-03-31T12:37:07.700Z,26.00
2019-03-31T12:39:34.457Z,25.70
2019-03-31T12:42:00.738Z,25.70
2019-03-31T12:44:27.105Z,25.90
2019-03-31T12:46:56.143Z,25.80
2019-03-31T12:49:22.445Z,26.20
2019-03-31T12:51:54.995Z,26.80
2019-03-31T12:54:20.297Z,26.40
2019-03-31T12:56:51.415Z,26.00
2019-03-31T12:59:17.714Z,25.50
2019-03-31T13:01:43.911Z,26.60
2019-03-31T13:04:16.105Z,25.90
2019-03-31T13:06:42.340Z,26.10
2019-03-31T13:09:08.690Z,25.70
2019-03-31T13:11:35.978Z,25.60
2019-03-31T13:14:02.170Z,25.80
2019-03-31T13:16:28.503Z,25.70
2019-03-31T13:18:55.607Z,25.70
2019-03-31T13:21:25.169Z,25.50
2019-03-31T13:23:53.667Z,25.50
2019-03-31T13:26:20.573Z,25.00
2019-03-31T13:28:47.343Z,25.80
2019-03-31T13:31:15.572Z,25.90
2019-03-31T13:33:41.983Z,26.50
2019-03-31T13:36:08.527Z,25.70
2019-03-31T13:38:34.665Z,26.00
2019-03-31T13:41:03.940Z,26.30
2019-03-31T13:43:30.701Z,25.70
2019-03-31T13:46:00.326Z,26.30
2019-03-31T13:48:26.894Z,26.10
2019-03-31T13:50:55.735Z,26.40
2019-03-31T13:53:29.852Z,26.30
2019-03-31T13:55:58.376Z,26.80
2019-03-31T13:58:25.487Z,26.30
2019-03-31T14:00:52.275Z,25.10
2019-03-31T14:03:30.525Z,25.50
2019-03-31T14:05:58.899Z,25.40
2019-03-31T14:08:27.864Z,25.70
2019-03-31T14:10:59.926Z,25.50
2019-03-31T14:13:26.249Z,25.30
2019-03-31T14:15:52.519Z,25.50
2019-03-31T14:18:18.784Z,26.00
2019-03-31T14:20:45.106Z,25.30
2019-03-31T14:23:11.355Z,25.50
2019-03-31T14:25:40.553Z,25.70
2019-03-31T14:28:07.101Z,26.00
2019-03-31T14:30:33.789Z,26.40
2019-03-31T14:33:00.127Z,26.90
2019-03-31T14:35:26.593Z,26.40
2019-03-31T14:37:53.421Z,26.50
2019-03-31T14:40:19.649Z,26.70
2019-03-31T14:42:45.912Z,26.50
2019-03-31T14:45:29.389Z,26.30
2019-03-31T14:47:55.828Z,26.00
2019-03-31T14:50:32.600Z,26.40
2019-03-31T14:52:58.954Z,26.10
2019-03-31T14:55:25.187Z,26.10
2019-03-31T14:57:51.423Z,26.00
2019-03-31T15:00:17.651Z,26.00
2019-03-31T15:02:44.231Z,26.20
2019-03-31T15:05:10.463Z,26.30
2019-03-31T15:07:36.760Z,26.40
2019-03-31T15:10:04.486Z,26.50
2019-03-31T15:12:30.733Z,26.50
2019-03-31T15:14:57.012Z,26.80
2019-03-31T15:17:23.542Z,26.70
2019-03-31T15:19:49.933Z,25.90
2019-03-31T15:22:16.210Z,26.20
2019-03-31T15:24:42.344Z,26.30
2019-03-31T15:27:08.607Z,26.70
2019-03-31T15:29:34.923Z,26.80
2019-03-31T15:32:01.187Z,26.80
2019-03-31T15:34:27.320Z,26.60
2019-03-31T15:36:53.581Z,27.10
2019-03-31T15:39:19.803Z,27.10
2019-03-31T15:41:45.967Z,26.70
2019-03-31T15:44:12.205Z,27.20
2019-03-31T15:46:38.395Z,26.80
2019-03-31T15:49:04.707Z,27.00
2019-03-31T15:51:30.848Z,26.80
2019-03-31T15:53:57.108Z,26.40
2019-03-31T15:56:23.469Z,26.50
2019-03-31T15:58:49.696Z,25.90
2019-03-31T16:01:16.081Z,26.20
2019-03-31T16:03:42.273Z,26.30
2019-03-31T16:06:08.747Z,26.60
2019-03-31T16:08:45.683Z,26.70
2019-03-31T16:11:11.889Z,26.70
2019-03-31T16:14:00.256Z,26.90
2019-03-31T16:16:30.515Z,26.80
2019-03-31T16:18:59.920Z,26.80
2019-03-31T16:21:26.224Z,26.90
2019-03-31T16:26:45.867Z,26.80
2019-03-31T16:29:12.103Z,27.00
2019-03-31T16:31:38.348Z,27.00
2019-03-31T16:34:04.482Z,27.20
2019-03-31T16:36:30.786Z,27.40
2019-03-31T16:38:59.001Z,27.30
2019-03-31T16:41:25.227Z,27.30
2019-03-31T16:43:51.512Z,27.20
2019-03-31T16:46:17.747Z,27.50
2019-03-31T16:48:43.993Z,27.90
2019-03-31T16:51:10.213Z,27.70
2019-03-31T16:53:36.663Z,27.50
2019-03-31T16:56:10.120Z,27.50
2019-03-31T16:58:44.936Z,27.70
2019-03-31T17:01:14.660Z,27.60
2019-03-31T17:04:22.462Z,28.00
2019-03-31T17:06:30.583Z,27.80
2019-03-31T17:09:10.571Z,27.70
2019-03-31T17:11:51.224Z,27.70
2019-03-31T17:14:24.132Z,27.80
2019-03-31T17:16:53.430Z,28.00
2019-03-31T17:19:26.591Z,28.00
2019-03-31T17:22:01.275Z,28.10
2019-03-31T17:24:37.837Z,28.00
2019-03-31T17:27:17.946Z,27.90
2019-03-31T17:29:42.785Z,28.30
2019-03-31T17:32:17.934Z,28.20
2019-03-31T17:34:44.175Z,28.40
2019-03-31T17:37:11.276Z,28.40
2019-03-31T17:39:43.730Z,28.50
2019-03-31T17:42:13.920Z,28.60
2019-03-31T17:44:43.592Z,28.40
2019-03-31T17:47:13.310Z,28.80
2019-03-31T17:49:39.536Z,28.80
2019-03-31T17:52:05.727Z,28.80
2019-03-31T17:54:32.093Z,28.70
2019-03-31T17:57:00.677Z,28.80
2019-03-31T17:59:32.200Z,28.90
2019-03-31T18:02:05.715Z,28.90
2019-03-31T18:04:33.410Z,29.00
2019-03-31T18:07:03.694Z,28.90
2019-03-31T18:09:37.033Z,28.90
2019-03-31T18:12:15.467Z,28.90
2019-03-31T18:14:54.957Z,29.00
2019-03-31T18:17:32.341Z,29.10
2019-03-31T18:23:06.995Z,29.20
2019-03-31T18:25:43.890Z,29.30
2019-03-31T18:28:10.301Z,29.40
2019-03-31T18:30:36.662Z,29.30
2019-03-31T18:33:03.019Z,29.20
2019-03-31T18:35:33.934Z,29.30
2019-03-31T18:38:01.364Z,29.10
2019-03-31T18:40:46.721Z,29.30
2019-03-31T18:43:14.277Z,29.30
2019-03-31T18:45:45.908Z,29.10
2019-03-31T18:48:15.044Z,29.20
2019-03-31T18:50:42.172Z,29.70
2019-03-31T18:53:16.766Z,29.40
2019-03-31T18:55:45.921Z,29.40
2019-03-31T18:58:34.583Z,29.30
2019-03-31T19:01:24.813Z,29.40
2019-03-31T19:03:53.991Z,29.40
2019-03-31T19:06:45.400Z,29.50
2019-03-31T19:09:14.575Z,29.50
2019-03-31T19:11:54.627Z,29.40
2019-03-31T19:14:26.907Z,29.60
2019-03-31T19:16:58.951Z,29.50
2019-03-31T19:19:46.901Z,29.50
2019-03-31T19:22:27.790Z,29.50
2019-03-31T19:25:10.360Z,29.50
2019-03-31T19:27:48.445Z,29.50
2019-03-31T19:30:23.678Z,29.50
2019-03-31T19:33:00.792Z,29.40
2019-03-31T19:35:47.102Z,29.40
2019-03-31T19:38:24.629Z,29.50
2019-03-31T19:41:05.806Z,29.60
2019-03-31T19:43:43.867Z,29.60
2019-03-31T19:46:13.168Z,29.80
2019-03-31T19:48:42.935Z,30.00
2019-03-31T19:51:31.481Z,30.20
2019-03-31T19:54:02.804Z,30.50
2019-03-31T19:56:54.831Z,30.90
2019-03-31T19:59:30.591Z,31.00
2019-03-31T20:05:22.335Z,31.70
2019-03-31T20:07:57.045Z,32.10
2019-03-31T20:10:32.134Z,32.20
2019-03-31T20:13:15.455Z,32.40
2019-03-31T20:15:54.025Z,32.70
2019-03-31T20:18:39.650Z,32.80
2019-03-31T20:21:10.906Z,33.00
2019-03-31T20:23:55.916Z,33.10
2019-03-31T20:26:26.783Z,33.40
2019-03-31T20:29:00.824Z,33.60
2019-03-31T20:31:32.090Z,33.80
2019-03-31T20:34:03.230Z,34.10
2019-03-31T20:36:47.751Z,34.80
2019-03-31T20:39:18.582Z,34.50
2019-03-31T20:41:52.958Z,34.90
2019-03-31T20:44:19.468Z,35.00
2019-03-31T20:46:46.658Z,35.40
2019-03-31T20:49:15.248Z,35.70
2019-03-31T20:51:42.767Z,35.90
2019-03-31T20:54:09.991Z,36.40
2019-03-31T20:56:40.331Z,36.80
2019-03-31T20:59:12.322Z,37.80
2019-03-31T21:01:38.512Z,37.40
2019-03-31T21:04:04.836Z,37.90
2019-03-31T21:06:31.172Z,38.20
2019-03-31T21:08:57.620Z,38.90
2019-03-31T21:11:24.496Z,39.50
2019-03-31T21:13:57.047Z,39.60
2019-03-31T21:16:27.686Z,40.10
2019-03-31T21:19:02.226Z,40.30
2019-03-31T21:21:28.497Z,40.60
2019-03-31T21:23:56.435Z,41.00
2019-03-31T21:26:29.711Z,41.20
2019-03-31T21:28:53.325Z,41.90
2019-03-31T21:31:19.550Z,42.20
2019-03-31T21:33:47.921Z,42.50
2019-03-31T21:36:14.269Z,42.70
2019-03-31T21:38:50.150Z,43.10
2019-03-31T21:41:17.703Z,43.30
2019-03-31T21:43:46.367Z,43.60
2019-03-31T21:46:19.926Z,43.70
2019-03-31T21:48:48.104Z,44.10
2019-03-31T21:51:19.701Z,44.60
2019-03-31T21:53:48.876Z,44.80
2019-03-31T21:56:22.384Z,45.10
2019-03-31T21:58:48.845Z,45.10
2019-03-31T22:01:17.064Z,45.30
2019-03-31T22:03:49.482Z,45.50
2019-03-31T22:06:24.174Z,46.20
2019-03-31T22:08:51.023Z,46.80
2019-03-31T22:11:18.388Z,47.20
2019-03-31T22:13:45.834Z,47.50
2019-03-31T22:16:13.272Z,47.80
2019-03-31T22:18:40.523Z,48.20
2019-03-31T22:21:12.981Z,48.70
2019-03-31T22:23:41.402Z,48.90
2019-03-31T22:26:09.345Z,49.40
2019-03-31T22:28:39.681Z,49.80
2019-03-31T22:31:10.050Z,50.30
2019-03-31T22:33:38.337Z,51.10
2019-03-31T22:36:19.952Z,51.50
2019-03-31T22:38:47.195Z,52.10
2019-03-31T22:41:13.500Z,52.60
2019-03-31T22:43:39.721Z,53.30
2019-03-31T22:46:15.376Z,54.10
2019-03-31T22:48:41.689Z,54.60
2019-03-31T22:51:12.047Z,54.60
2019-03-31T22:53:38.142Z,55.30
2019-03-31T22:56:04.505Z,55.70
2019-03-31T22:58:35.797Z,56.00
2019-03-31T23:01:04.825Z,56.50
2019-03-31T23:03:36.568Z,57.40
2019-03-31T23:06:02.874Z,57.50
2019-03-31T23:08:30.052Z,58.00
2019-03-31T23:11:06.746Z,59.10
2019-03-31T23:13:35.028Z,59.00
2019-03-31T23:16:01.383Z,59.10
2019-03-31T23:18:30.328Z,59.90
2019-03-31T23:21:00.803Z,60.80
2019-03-31T23:23:27.083Z,61.60
2019-03-31T23:25:53.341Z,62.30
2019-03-31T23:28:19.672Z,62.80
2019-03-31T23:30:45.837Z,63.40
2019-03-31T23:33:12.963Z,63.80
2019-03-31T23:35:39.232Z,64.30
2019-03-31T23:38:09.280Z,65.20
2019-03-31T23:40:35.654Z,65.10
2019-03-31T23:43:04.769Z,65.30
2019-03-31T23:45:34.658Z,65.60
2019-03-31T23:48:00.879Z,65.70
2019-03-31T23:50:27.663Z,65.60
2019-03-31T23:52:53.844Z,65.60
2019-03-31T23:55:20.113Z,66.00
2019-03-31T23:57:46.314Z,66.40
